Time;durP1;ratioP1;P1;durP2;ratioP2;P2;SDS_P1;SDS_P2;PMS_P1;PMS_P2;Temp;Humidity;BMP_temperature;BMP_pressure;BME280_temperature;BME280_humidity;BME280_pressure;Samples;Min_cycle;Max_cycle;Signal;HPM_P1;HPM_P2
2022/02/06 00:00:09;;;;;;;2.70;1.20;;;6.30;99.80;;;;;;4959782;28;20034;-77
2022/02/06 00:02:38;;;;;;;2.50;0.97;;;6.30;99.80;;;;;;4959166;28;20039;-78
2022/02/06 00:05:06;;;;;;;3.93;0.90;;;6.30;99.90;;;;;;4985442;28;20125;-78
2022/02/06 00:07:32;;;;;;;4.37;1.10;;;6.30;99.80;;;;;;4960014;28;20034;-77
2022/02/06 00:09:58;;;;;;;4.93;0.80;;;6.30;99.80;;;;;;4959776;28;20027;-78
2022/02/06 00:12:24;;;;;;;6.00;1.00;;;6.40;99.80;;;;;;4960346;28;20478;-78
2022/02/06 00:14:50;;;;;;;3.83;0.90;;;6.40;99.90;;;;;;4958298;28;20038;-77
2022/02/06 00:17:15;;;;;;;9.73;1.03;;;6.30;99.80;;;;;;4959540;28;20026;-78
2022/02/06 00:19:43;;;;;;;6.33;1.10;;;6.30;99.70;;;;;;4960010;28;20031;-77
2022/02/06 00:22:13;;;;;;;3.50;0.90;;;6.30;99.80;;;;;;4959239;28;20035;-77
2022/02/06 00:24:46;;;;;;;5.27;1.77;;;6.30;99.60;;;;;;4960402;28;20030;-77
2022/02/06 00:27:24;;;;;;;6.30;1.00;;;6.30;99.70;;;;;;4959088;28;20512;-77
2022/02/06 00:30:05;;;;;;;3.77;1.10;;;6.30;99.90;;;;;;4976040;28;20031;-78
2022/02/06 00:32:44;;;;;;;2.67;1.00;;;6.30;99.90;;;;;;4957458;28;20086;-77
2022/02/06 00:41:08;;;;;;;5.27;1.30;;;6.20;99.70;;;;;;4976078;28;20149;-76
2022/02/06 00:43:28;;;;;;;4.20;1.00;;;6.20;99.90;;;;;;4973339;28;20033;-76
2022/02/06 00:45:54;;;;;;;2.47;0.87;;;6.20;99.90;;;;;;4958386;28;20026;-81
2022/02/06 00:48:25;;;;;;;6.43;1.50;;;6.20;99.90;;;;;;4958680;28;20035;-76
2022/02/06 00:51:02;;;;;;;4.73;1.27;;;6.20;99.90;;;;;;4959337;28;20086;-77
2022/02/06 00:53:29;;;;;;;4.80;0.90;;;6.20;99.90;;;;;;4959052;28;20038;-76
2022/02/06 00:55:55;;;;;;;1.90;1.00;;;6.10;99.90;;;;;;4975406;28;20030;-76
2022/02/06 00:58:21;;;;;;;3.33;0.90;;;6.10;99.90;;;;;;4958945;28;20019;-78
2022/02/06 01:00:48;;;;;;;2.70;1.20;;;6.10;99.90;;;;;;4975873;28;20035;-79
2022/02/06 01:03:14;;;;;;;4.77;1.07;;;6.00;99.90;;;;;;4957339;28;20053;-79
2022/02/06 01:05:40;;;;;;;4.57;1.00;;;6.10;99.90;;;;;;4959641;28;20487;-79
2022/02/06 01:08:05;;;;;;;6.23;1.33;;;6.00;99.90;;;;;;4958495;28;20093;-80
2022/02/06 01:10:31;;;;;;;3.23;1.13;;;6.00;99.90;;;;;;4959250;28;20046;-80
2022/02/06 01:13:11;;;;;;;6.53;1.30;;;6.00;99.90;;;;;;4976365;28;20464;-83
2022/02/06 01:15:36;;;;;;;2.93;0.90;;;6.00;99.90;;;;;;4977004;28;20057;-81
2022/02/06 01:18:06;;;;;;;3.03;1.07;;;5.90;99.90;;;;;;4959503;28;20030;-80
2022/02/06 01:20:43;;;;;;;4.93;1.30;;;5.90;99.90;;;;;;4976501;28;20027;-80
2022/02/06 01:23:29;;;;;;;3.10;0.93;;;5.90;99.90;;;;;;4958888;28;20031;-80
2022/02/06 01:26:00;;;;;;;4.80;1.03;;;5.90;99.90;;;;;;4958819;28;20054;-81
2022/02/06 01:28:38;;;;;;;4.93;1.47;;;5.90;99.90;;;;;;4959582;28;20408;-81
2022/02/06 01:31:24;;;;;;;3.00;1.00;;;5.80;99.90;;;;;;4958974;28;20031;-80
2022/02/06 01:33:54;;;;;;;5.73;1.23;;;5.80;99.90;;;;;;4959162;28;20381;-80
2022/02/06 01:36:31;;;;;;;4.87;1.10;;;5.80;99.90;;;;;;4958787;28;20028;-83
2022/02/06 01:39:48;;;;;;;2.97;0.80;;;5.80;99.90;;;;;;4958725;28;20492;-81
2022/02/06 01:41:47;;;;;;;4.33;1.07;;;5.70;99.90;;;;;;4968179;28;20042;-82
2022/02/06 02:01:28;;;;;;;7.53;1.30;;;5.60;99.90;;;;;;4973612;28;20085;-79
2022/02/06 02:03:41;;;;;;;2.77;0.90;;;5.50;99.90;;;;;;4966265;28;20145;-80
2022/02/06 02:09:16;;;;;;;6.20;1.10;;;5.50;99.90;;;;;;4976245;28;20077;-81
2022/02/06 02:19:53;;;;;;;4.17;1.20;;;5.40;99.90;;;;;;4975517;28;20542;-82
2022/02/06 02:33:13;;;;;;;4.03;1.40;;;5.30;99.90;;;;;;4974614;28;20035;-80
2022/02/06 02:46:36;;;;;;;5.40;1.10;;;5.20;99.90;;;;;;4967650;28;20089;-79
2022/02/06 02:49:02;;;;;;;3.73;1.20;;;5.20;99.90;;;;;;4957045;28;20031;-79
2022/02/06 02:51:33;;;;;;;6.43;1.10;;;5.30;99.90;;;;;;4957713;28;20121;-80
2022/02/06 02:54:05;;;;;;;4.95;1.63;;;5.20;99.90;;;;;;4957627;28;20081;-80
2022/02/06 02:56:46;;;;;;;4.63;1.60;;;5.30;99.90;;;;;;4957548;28;20460;-80
2022/02/06 02:59:25;;;;;;;4.47;0.80;;;5.30;99.90;;;;;;4964824;28;20023;-81
2022/02/06 03:01:57;;;;;;;5.80;1.40;;;5.30;99.90;;;;;;4975041;28;20039;-80
2022/02/06 03:04:23;;;;;;;6.10;1.25;;;5.20;99.90;;;;;;4955736;28;20039;-80
2022/02/06 03:06:49;;;;;;;1.83;0.70;;;5.30;99.90;;;;;;4973022;28;20042;-80
2022/02/06 03:09:16;;;;;;;2.80;0.90;;;5.30;99.90;;;;;;4973706;28;20595;-80
2022/02/06 03:11:42;;;;;;;3.77;1.23;;;5.30;99.90;;;;;;4973967;28;20173;-80
2022/02/06 03:16:37;;;;;;;2.53;1.07;;;5.30;99.90;;;;;;4975089;28;20034;-80
2022/02/06 03:19:07;;;;;;;4.67;0.90;;;5.30;99.90;;;;;;4973077;28;20023;-80
2022/02/06 03:21:34;;;;;;;3.17;0.90;;;5.30;99.90;;;;;;4974988;28;20033;-80
2022/02/06 03:24:24;;;;;;;4.60;0.87;;;5.30;99.90;;;;;;4973714;28;20031;-82
2022/02/06 03:26:53;;;;;;;5.27;0.90;;;5.30;99.90;;;;;;4977021;28;20035;-80
2022/02/06 03:29:21;;;;;;;3.93;1.00;;;5.30;99.90;;;;;;4978597;28;20023;-80
2022/02/06 03:31:47;;;;;;;4.37;0.93;;;5.40;99.90;;;;;;4977624;28;20097;-80
2022/02/06 03:34:13;;;;;;;6.93;1.20;;;5.40;99.90;;;;;;4977350;28;20027;-80
2022/02/06 03:36:39;;;;;;;4.60;0.90;;;5.40;99.90;;;;;;4977586;28;20054;-80
2022/02/06 03:39:06;;;;;;;4.97;1.20;;;5.40;99.90;;;;;;4978267;28;20037;-80
2022/02/06 03:41:48;;;;;;;5.90;0.90;;;5.40;99.90;;;;;;4977584;28;20063;-79
2022/02/06 03:49:59;;;;;;;3.10;0.90;;;5.50;99.90;;;;;;4965871;28;20490;-80
2022/02/06 03:52:31;;;;;;;4.53;1.20;;;5.50;99.90;;;;;;4977365;28;20030;-80
2022/02/06 03:54:57;;;;;;;2.43;0.73;;;5.50;99.90;;;;;;4977236;28;20147;-81
2022/02/06 03:57:23;;;;;;;5.77;1.03;;;5.50;99.90;;;;;;4976868;28;20477;-80
2022/02/06 03:59:48;;;;;;;4.67;0.90;;;5.50;99.90;;;;;;4976943;28;20039;-80
2022/02/06 04:02:14;;;;;;;3.43;0.87;;;5.50;99.90;;;;;;4976413;28;20044;-80
2022/02/06 04:04:40;;;;;;;4.13;0.90;;;5.50;99.90;;;;;;4978108;28;20061;-80
2022/02/06 04:07:08;;;;;;;4.37;0.90;;;5.50;99.90;;;;;;4975820;28;20026;-80
2022/02/06 04:09:44;;;;;;;2.90;0.90;;;5.60;99.90;;;;;;4976967;28;20082;-80
2022/02/06 04:12:13;;;;;;;2.63;0.70;;;5.60;99.90;;;;;;4976540;28;20118;-80
2022/02/06 04:17:30;;;;;;;2.20;0.93;;;5.60;99.90;;;;;;4970070;28;20484;-80
2022/02/06 04:19:56;;;;;;;3.80;0.97;;;5.60;99.90;;;;;;4976652;28;20042;-80
2022/02/06 04:22:22;;;;;;;7.17;0.87;;;5.60;99.90;;;;;;4976168;28;20023;-81
2022/02/06 04:24:48;;;;;;;4.97;1.00;;;5.60;99.90;;;;;;4976802;28;20035;-80
2022/02/06 04:27:14;;;;;;;8.03;0.80;;;5.60;99.90;;;;;;4977545;28;20158;-80
2022/02/06 04:29:40;;;;;;;3.80;1.00;;;5.70;99.90;;;;;;4976642;28;20085;-80
2022/02/06 04:32:07;;;;;;;2.63;1.00;;;5.60;99.90;;;;;;4975928;28;20038;-79
2022/02/06 04:34:34;;;;;;;3.03;0.60;;;5.60;99.90;;;;;;4976357;28;20062;-81
2022/02/06 04:40:11;;;;;;;6.05;1.50;;;5.70;99.90;;;;;;4917131;29;20040;-82
2022/02/06 04:45:59;;;;;;;6.47;0.90;;;5.60;99.90;;;;;;4976531;28;20034;-80
2022/02/06 04:53:50;;;;;;;6.57;1.10;;;5.60;99.90;;;;;;4975901;28;20034;-80
2022/02/06 05:24:10;;;;;;;4.30;0.90;;;5.90;99.90;;;;;;4943857;28;20129;-80
2022/02/06 05:29:16;;;;;;;3.75;0.68;;;5.90;99.90;;;;;;4976880;28;20468;-83
2022/02/06 05:34:16;;;;;;;5.73;1.00;;;6.00;99.90;;;;;;4976096;28;20027;-80
2022/02/06 05:36:42;;;;;;;2.87;1.03;;;6.00;99.90;;;;;;4975173;28;20392;-80
2022/02/06 05:39:08;;;;;;;4.23;1.00;;;6.00;99.90;;;;;;4974606;28;20035;-81
2022/02/06 05:41:34;;;;;;;3.70;0.90;;;6.00;99.90;;;;;;4975201;28;20042;-82
2022/02/06 05:43:59;;;;;;;3.37;0.70;;;6.00;99.90;;;;;;4975532;28;20050;-81
2022/02/06 05:46:25;;;;;;;3.63;0.70;;;6.00;99.90;;;;;;4974855;28;20019;-81
2022/02/06 05:48:51;;;;;;;3.57;1.10;;;6.00;99.90;;;;;;4974513;28;20033;-81
2022/02/06 05:51:17;;;;;;;3.53;0.80;;;6.00;99.90;;;;;;4974688;28;20038;-81
2022/02/06 05:53:43;;;;;;;5.87;0.80;;;6.10;99.90;;;;;;4976325;28;20062;-81
2022/02/06 05:56:09;;;;;;;3.77;0.80;;;6.10;99.90;;;;;;4974124;28;20026;-79
2022/02/06 05:58:34;;;;;;;3.73;0.87;;;6.10;99.90;;;;;;4974796;28;20031;-79
2022/02/06 06:01:00;;;;;;;3.50;0.70;;;6.10;99.90;;;;;;4974513;28;20468;-79
2022/02/06 06:03:26;;;;;;;2.30;0.87;;;6.10;99.90;;;;;;4974076;28;20082;-79
2022/02/06 06:05:51;;;;;;;2.63;0.73;;;6.10;99.90;;;;;;4974793;28;20117;-79
2022/02/06 06:08:17;;;;;;;6.20;0.83;;;6.10;99.90;;;;;;4974486;28;20453;-79
2022/02/06 06:10:43;;;;;;;6.60;0.80;;;6.00;99.90;;;;;;4974544;28;20031;-79
2022/02/06 06:13:09;;;;;;;2.40;1.00;;;6.10;99.90;;;;;;4974203;28;20117;-83
2022/02/06 06:15:35;;;;;;;4.03;1.20;;;6.00;99.90;;;;;;4974968;28;20420;-80
2022/02/06 06:18:04;;;;;;;5.93;0.73;;;6.10;99.90;;;;;;4973723;28;20023;-80
2022/02/06 06:20:32;;;;;;;3.03;0.70;;;6.00;99.90;;;;;;4974050;28;20376;-80
2022/02/06 06:22:58;;;;;;;5.93;1.00;;;6.00;99.90;;;;;;4974461;28;20027;-79
2022/02/06 06:25:27;;;;;;;4.67;1.27;;;6.00;99.90;;;;;;4974594;28;20026;-80
2022/02/06 06:27:53;;;;;;;4.30;0.90;;;6.10;99.90;;;;;;4973992;28;20038;-80
2022/02/06 06:30:18;;;;;;;4.83;1.00;;;6.10;99.90;;;;;;4973538;28;20031;-80
2022/02/06 06:32:44;;;;;;;2.77;0.80;;;6.10;99.90;;;;;;4973948;28;20037;-80
2022/02/06 06:35:09;;;;;;;5.40;0.70;;;6.10;99.90;;;;;;4973606;28;20070;-83
2022/02/06 06:37:39;;;;;;;2.17;0.90;;;6.10;99.90;;;;;;4973854;28;20384;-80
2022/02/06 06:40:06;;;;;;;2.67;0.87;;;6.10;99.90;;;;;;4974031;28;20035;-79
2022/02/06 06:42:31;;;;;;;3.10;0.93;;;6.20;99.90;;;;;;4974609;28;20077;-79
2022/02/06 06:44:57;;;;;;;4.63;1.00;;;6.20;99.90;;;;;;4974896;28;20407;-81
2022/02/06 06:47:23;;;;;;;4.47;0.93;;;6.20;99.90;;;;;;4973759;28;20037;-81
2022/02/06 06:49:48;;;;;;;4.93;0.80;;;6.20;99.90;;;;;;4974195;28;20034;-81
2022/02/06 06:52:14;;;;;;;5.17;0.70;;;6.30;99.90;;;;;;4973660;28;20031;-81
2022/02/06 06:54:45;;;;;;;5.97;0.90;;;6.30;99.90;;;;;;4974414;28;20066;-81
2022/02/06 06:57:23;;;;;;;8.07;0.90;;;6.30;99.90;;;;;;4973823;28;20449;-83
2022/02/06 07:04:53;;;;;;;5.07;1.00;;;6.30;99.90;;;;;;4974796;28;20042;-80
2022/02/06 07:07:19;;;;;;;4.10;1.33;;;6.30;99.90;;;;;;4973469;28;20042;-80
2022/02/06 07:09:45;;;;;;;6.00;0.90;;;6.40;99.90;;;;;;4972935;28;20031;-80
2022/02/06 07:12:13;;;;;;;3.80;0.80;;;6.40;99.90;;;;;;4973371;28;20027;-85
2022/02/06 07:14:39;;;;;;;3.77;0.63;;;6.40;99.90;;;;;;4973538;28;20026;-80
2022/02/06 07:17:05;;;;;;;3.27;0.67;;;6.40;99.90;;;;;;4975564;28;20167;-80
2022/02/06 07:19:31;;;;;;;4.37;0.87;;;6.50;99.90;;;;;;4973293;28;20071;-80
2022/02/06 07:21:57;;;;;;;5.37;1.10;;;6.50;99.90;;;;;;4973719;28;20531;-81
2022/02/06 07:24:26;;;;;;;2.53;0.87;;;6.50;99.90;;;;;;4973168;28;20034;-80
2022/02/06 07:26:56;;;;;;;6.60;1.03;;;6.50;99.90;;;;;;4962341;28;20023;-80
2022/02/06 07:29:23;;;;;;;1.97;0.80;;;6.50;99.90;;;;;;4956721;28;20122;-80
2022/02/06 07:31:50;;;;;;;6.17;1.00;;;6.50;99.90;;;;;;4957290;28;20027;-79
2022/02/06 07:34:15;;;;;;;3.73;0.80;;;6.50;99.90;;;;;;4956583;28;20034;-80
2022/02/06 07:36:41;;;;;;;3.90;0.80;;;6.50;99.90;;;;;;4957271;28;20026;-80
2022/02/06 07:39:07;;;;;;;6.00;1.10;;;6.50;99.90;;;;;;4957742;28;20424;-79
2022/02/06 07:41:32;;;;;;;7.47;0.67;;;6.50;99.90;;;;;;4956521;28;20033;-80
2022/02/06 07:43:58;;;;;;;3.17;0.83;;;6.50;99.90;;;;;;4974750;28;20031;-80
2022/02/06 07:46:30;;;;;;;4.83;0.70;;;6.50;99.90;;;;;;4957281;28;20063;-80
2022/02/06 07:49:00;;;;;;;4.05;0.85;;;6.50;99.90;;;;;;4957541;28;20027;-80
2022/02/06 07:51:26;;;;;;;4.13;0.80;;;6.50;99.90;;;;;;4956536;28;20066;-80
2022/02/06 07:53:52;;;;;;;6.67;1.37;;;6.50;99.90;;;;;;4956738;28;20130;-81
2022/02/06 07:56:17;;;;;;;7.33;1.20;;;6.50;99.90;;;;;;4956223;28;20500;-79
2022/02/06 07:58:43;;;;;;;3.33;0.67;;;6.50;99.90;;;;;;4956947;28;20481;-80
2022/02/06 08:01:09;;;;;;;5.67;0.90;;;6.60;99.90;;;;;;4957064;28;20035;-82
2022/02/06 08:03:34;;;;;;;3.10;0.50;;;6.60;99.90;;;;;;4956428;28;20117;-81
2022/02/06 08:06:00;;;;;;;4.20;0.90;;;6.60;99.90;;;;;;4957623;28;20063;-87
2022/02/06 08:08:25;;;;;;;3.87;0.83;;;6.60;99.90;;;;;;4956973;28;20466;-87
2022/02/06 08:10:58;;;;;;;2.60;0.70;;;6.60;99.90;;;;;;4957537;28;20035;-88
2022/02/06 08:13:28;;;;;;;2.83;0.70;;;6.60;99.90;;;;;;4960275;28;20480;-87
2022/02/06 08:15:54;;;;;;;3.97;1.03;;;6.60;99.90;;;;;;4961150;28;20023;-88
2022/02/06 08:18:20;;;;;;;3.30;0.47;;;6.60;99.90;;;;;;4960729;28;20031;-87
2022/02/06 08:20:46;;;;;;;1.90;0.70;;;6.60;99.90;;;;;;4960790;28;20178;-88
2022/02/06 08:23:14;;;;;;;3.70;0.70;;;6.70;99.90;;;;;;4960963;28;20074;-87
2022/02/06 08:25:39;;;;;;;3.90;0.60;;;6.70;99.90;;;;;;4960983;28;20027;-87
2022/02/06 08:28:05;;;;;;;6.10;0.90;;;6.70;99.90;;;;;;4960799;28;20026;-87
2022/02/06 08:30:31;;;;;;;3.03;0.70;;;6.70;99.90;;;;;;4960533;28;20023;-86
2022/02/06 08:32:56;;;;;;;3.73;0.60;;;6.70;99.90;;;;;;4961154;28;20039;-88
2022/02/06 08:35:24;;;;;;;2.77;0.50;;;6.70;99.90;;;;;;4960348;28;20439;-87
2022/02/06 08:37:51;;;;;;;3.63;1.03;;;6.80;99.90;;;;;;4960681;28;20035;-88
2022/02/06 08:40:17;;;;;;;3.43;0.60;;;6.80;99.90;;;;;;4960092;28;20039;-88
2022/02/06 08:42:44;;;;;;;4.50;0.83;;;6.70;99.90;;;;;;4960960;28;20031;-89
2022/02/06 08:45:11;;;;;;;6.20;0.83;;;6.70;99.90;;;;;;4977563;28;20464;-88
2022/02/06 08:47:38;;;;;;;4.47;1.47;;;6.60;99.90;;;;;;4959948;28;20031;-87
2022/02/06 08:50:05;;;;;;;2.53;1.03;;;6.60;99.90;;;;;;4960622;28;20031;-88
2022/02/06 08:52:31;;;;;;;5.80;0.63;;;6.60;99.90;;;;;;4960298;28;20042;-89
2022/02/06 08:54:56;;;;;;;5.27;1.07;;;6.60;99.90;;;;;;4961047;28;20027;-88
2022/02/06 08:57:25;;;;;;;3.43;0.83;;;6.50;99.90;;;;;;4960455;28;20023;-88
2022/02/06 08:59:52;;;;;;;3.90;0.63;;;6.50;99.90;;;;;;4960660;28;20023;-87
2022/02/06 09:02:18;;;;;;;5.50;0.80;;;6.50;99.90;;;;;;4959790;28;20129;-87
2022/02/06 09:04:44;;;;;;;6.03;0.90;;;6.50;99.90;;;;;;4959850;28;20121;-88
2022/02/06 09:07:11;;;;;;;1.67;0.60;;;6.50;99.90;;;;;;4960406;28;20476;-89
2022/02/06 09:09:41;;;;;;;6.00;1.00;;;6.60;99.90;;;;;;4959792;28;20033;-88
2022/02/06 09:12:09;;;;;;;3.90;0.70;;;6.60;99.90;;;;;;4960601;28;20086;-89
2022/02/06 09:14:34;;;;;;;3.97;1.07;;;6.60;99.90;;;;;;4959933;28;20121;-88
2022/02/06 09:17:00;;;;;;;3.90;0.73;;;6.60;99.90;;;;;;4960188;28;20073;-87
2022/02/06 09:19:25;;;;;;;3.60;0.80;;;6.60;99.90;;;;;;4959608;28;20468;-87
2022/02/06 09:21:51;;;;;;;2.23;0.70;;;6.60;99.90;;;;;;4959910;28;20035;-87
2022/02/06 09:24:20;;;;;;;5.90;0.80;;;6.60;99.90;;;;;;4958503;28;20122;-87
2022/02/06 09:26:46;;;;;;;2.00;0.60;;;6.60;99.90;;;;;;4960087;28;20035;-86
2022/02/06 09:29:12;;;;;;;1.53;0.77;;;6.60;99.90;;;;;;4960034;28;20027;-87
2022/02/06 09:31:38;;;;;;;5.27;0.60;;;6.50;99.90;;;;;;4959369;28;20039;-88
2022/02/06 09:36:31;;;;;;;4.80;1.40;;;6.60;99.90;;;;;;4976575;28;20053;-88
2022/02/06 09:38:56;;;;;;;5.67;0.83;;;6.60;99.90;;;;;;4962373;28;20027;-87
2022/02/06 09:41:22;;;;;;;7.47;0.90;;;6.60;99.90;;;;;;4959798;28;20530;-87
2022/02/06 09:43:49;;;;;;;2.67;0.73;;;6.50;99.90;;;;;;4959916;28;20026;-88
2022/02/06 09:46:15;;;;;;;2.03;0.67;;;6.50;99.90;;;;;;4960160;28;20023;-89
2022/02/06 09:48:42;;;;;;;2.67;0.73;;;6.60;99.90;;;;;;4976716;28;20093;-88
2022/02/06 09:51:09;;;;;;;3.73;0.90;;;6.60;99.90;;;;;;4976750;28;20035;-88
2022/02/06 09:53:36;;;;;;;5.93;1.20;;;6.60;99.90;;;;;;4976047;28;20034;-88
2022/02/06 09:56:07;;;;;;;4.57;1.03;;;6.50;99.90;;;;;;4959309;28;20058;-87
2022/02/06 10:01:04;;;;;;;2.73;0.70;;;6.50;99.90;;;;;;4976344;28;20086;-88
2022/02/06 10:03:35;;;;;;;6.10;0.97;;;6.50;99.90;;;;;;4958777;28;20058;-88
2022/02/06 10:06:01;;;;;;;3.80;0.55;;;6.60;99.90;;;;;;4959372;28;20515;-88
2022/02/06 10:08:39;;;;;;;5.47;0.90;;;6.50;99.90;;;;;;4958756;28;20040;-88
2022/02/06 10:11:07;;;;;;;4.13;0.70;;;6.50;99.90;;;;;;4960957;28;20392;-88
2022/02/06 10:13:37;;;;;;;3.50;0.60;;;6.50;99.90;;;;;;4961128;28;20468;-88
2022/02/06 10:16:09;;;;;;;4.43;0.70;;;6.40;99.90;;;;;;4961393;28;20110;-89
2022/02/06 10:18:35;;;;;;;2.38;0.60;;;6.40;99.90;;;;;;4961252;28;20031;-89
2022/02/06 10:21:02;;;;;;;4.33;0.87;;;6.50;99.90;;;;;;4961585;28;20061;-88
2022/02/06 10:24:09;;;;;;;4.93;0.90;;;6.50;99.90;;;;;;4961386;28;20055;-89
2022/02/06 10:26:28;;;;;;;4.37;0.70;;;6.50;99.90;;;;;;4975178;28;20094;-87
2022/02/06 10:29:30;;;;;;;1.20;0.60;;;6.60;99.90;;;;;;4962140;28;20027;-88
2022/02/06 10:32:01;;;;;;;1.70;0.60;;;6.50;99.90;;;;;;4978250;28;20123;-88
2022/02/06 10:34:37;;;;;;;3.07;0.97;;;6.60;99.90;;;;;;4962407;28;20030;-89
2022/02/06 10:37:19;;;;;;;6.13;0.80;;;6.60;99.90;;;;;;4963078;28;20476;-88
2022/02/06 10:40:02;;;;;;;;;;;6.60;99.90;;;;;;4979821;28;20368;-88
2022/02/06 10:42:29;;;;;;;;;;;6.60;99.90;;;;;;4979353;28;19917;-88
2022/02/06 10:45:26;;;;;;;3.23;1.00;;;6.60;99.90;;;;;;4962196;28;19961;-88
2022/02/06 10:47:55;;;;;;;2.77;0.77;;;6.60;99.90;;;;;;4962261;28;20050;-89
2022/02/06 10:50:29;;;;;;;2.43;0.60;;;6.60;99.90;;;;;;4961806;28;20031;-88
2022/02/06 10:53:10;;;;;;;5.00;0.80;;;6.60;99.90;;;;;;4962097;28;20490;-90
2022/02/06 10:55:51;;;;;;;3.40;0.83;;;6.60;99.90;;;;;;4957437;29;20046;-88
2022/02/06 10:58:17;;;;;;;2.03;0.53;;;6.50;99.90;;;;;;4941956;29;20035;-89
2022/02/06 11:00:43;;;;;;;2.97;0.53;;;6.50;99.90;;;;;;4942404;29;20043;-89
2022/02/06 11:03:23;;;;;;;4.83;0.90;;;6.50;99.90;;;;;;4943235;29;20063;-90
2022/02/06 11:05:54;;;;;;;6.13;0.93;;;6.40;99.90;;;;;;4944383;29;20500;-88
2022/02/06 11:08:29;;;;;;;2.33;0.60;;;6.40;99.90;;;;;;4943010;29;20099;-89
2022/02/06 11:10:59;;;;;;;4.30;0.70;;;6.40;99.90;;;;;;4941912;29;20137;-90
2022/02/06 11:13:26;;;;;;;3.03;0.50;;;6.30;99.90;;;;;;4941209;29;20106;-89
2022/02/06 11:15:52;;;;;;;2.00;0.40;;;6.30;99.90;;;;;;4941888;29;20058;-89
2022/02/06 11:18:23;;;;;;;3.57;0.93;;;6.30;99.90;;;;;;4941820;29;20027;-89
2022/02/06 11:21:01;;;;;;;4.13;0.73;;;6.30;99.90;;;;;;4942021;29;20637;-89
2022/02/06 11:23:39;;;;;;;1.23;0.50;;;6.30;99.90;;;;;;4957486;29;20476;-90
2022/02/06 11:26:20;;;;;;;6.30;0.80;;;6.30;99.90;;;;;;4958175;29;20063;-90
2022/02/06 11:28:46;;;;;;;1.80;0.60;;;6.30;99.90;;;;;;4941582;29;20043;-88
2022/02/06 11:31:15;;;;;;;2.00;0.70;;;6.20;99.90;;;;;;4941868;29;20042;-88
2022/02/06 11:33:40;;;;;;;2.53;0.50;;;6.30;99.90;;;;;;4956959;28;20039;-89
2022/02/06 11:36:14;;;;;;;5.13;0.87;;;6.30;99.90;;;;;;4979405;28;20038;-90
2022/02/06 11:45:06;;;;;;;5.13;0.80;;;6.30;99.90;;;;;;4979782;28;20065;-89
2022/02/06 11:47:49;;;;;;;2.03;0.50;;;6.30;99.90;;;;;;4985667;28;20058;-89
2022/02/06 11:50:16;;;;;;;1.70;0.50;;;6.30;99.90;;;;;;4970851;28;20057;-88
2022/02/06 11:52:48;;;;;;;4.83;0.80;;;6.30;99.90;;;;;;4969345;28;20042;-89
2022/02/06 11:55:38;;;;;;;3.28;0.80;;;6.30;99.90;;;;;;4973889;28;20049;-91
2022/02/06 11:58:20;;;;;;;4.87;0.80;;;6.30;99.90;;;;;;4972138;28;20061;-89
2022/02/06 12:01:06;;;;;;;2.90;0.60;;;6.30;99.90;;;;;;4966309;28;20042;-90
2022/02/06 12:03:58;;;;;;;2.60;0.63;;;6.30;99.90;;;;;;4966857;28;20055;-88
2022/02/06 12:06:47;;;;;;;3.40;0.70;;;6.30;99.90;;;;;;4970735;28;20029;-89
2022/02/06 12:09:12;;;;;;;1.37;0.60;;;6.30;99.90;;;;;;4971056;28;20035;-90
2022/02/06 12:11:38;;;;;;;2.47;0.70;;;6.30;99.90;;;;;;4966829;28;20035;-88
2022/02/06 12:14:36;;;;;;;4.63;1.33;;;6.30;99.90;;;;;;4966745;28;20031;-89
2022/02/06 12:20:07;;;;;;;2.10;0.80;;;6.30;99.90;;;;;;4980570;28;20077;-89
2022/02/06 12:22:38;;;;;;;5.07;0.80;;;6.30;99.90;;;;;;4977861;28;20037;-90
2022/02/06 12:25:25;;;;;;;4.73;0.70;;;6.40;99.90;;;;;;4961322;28;20054;-87
2022/02/06 12:28:18;;;;;;;2.20;0.60;;;6.30;99.90;;;;;;4960626;28;20039;-89
2022/02/06 12:30:45;;;;;;;1.07;0.50;;;6.40;99.90;;;;;;4960722;28;20082;-89
2022/02/06 12:33:39;;;;;;;2.47;0.60;;;6.40;99.90;;;;;;4961002;28;20035;-89
2022/02/06 12:38:49;;;;;;;3.63;0.80;;;6.30;99.90;;;;;;4977443;28;20174;-89
2022/02/06 12:41:22;;;;;;;2.53;0.60;;;6.30;99.90;;;;;;4960678;28;20126;-89
2022/02/06 12:43:53;;;;;;;5.00;0.63;;;6.30;99.90;;;;;;4960213;28;20452;-89
2022/02/06 12:46:24;;;;;;;4.03;0.60;;;6.40;99.90;;;;;;4960683;28;20043;-88
2022/02/06 12:48:51;;;;;;;3.75;0.70;;;6.30;99.90;;;;;;4960213;28;20034;-89
2022/02/06 12:51:28;;;;;;;2.37;0.70;;;6.30;99.90;;;;;;4960628;28;20117;-88
2022/02/06 12:54:08;;;;;;;3.00;0.43;;;6.30;99.90;;;;;;4960508;28;20022;-89
2022/02/06 12:56:34;;;;;;;2.77;0.40;;;6.30;99.90;;;;;;4960331;28;20043;-88
2022/02/06 12:59:01;;;;;;;3.50;0.87;;;6.30;99.90;;;;;;4960755;28;20023;-88
2022/02/06 13:01:39;;;;;;;3.03;1.13;;;6.30;99.90;;;;;;4960571;28;20476;-89
2022/02/06 13:04:08;;;;;;;2.10;0.50;;;6.30;99.90;;;;;;4960021;28;20058;-89
2022/02/06 13:06:38;;;;;;;1.70;0.60;;;6.30;99.90;;;;;;4959637;28;20495;-90
2022/02/06 13:09:10;;;;;;;3.20;0.50;;;6.20;99.90;;;;;;4960433;28;20027;-89
2022/02/06 13:11:55;;;;;;;1.50;0.40;;;6.20;99.90;;;;;;4960480;28;20081;-89
2022/02/06 13:14:48;;;;;;;1.23;0.50;;;6.20;99.90;;;;;;4960359;28;20101;-91
2022/02/06 13:17:43;;;;;;;2.47;0.60;;;6.20;99.90;;;;;;4960594;28;20468;-90
2022/02/06 13:20:31;;;;;;;3.07;0.57;;;6.20;99.90;;;;;;4976729;28;20031;-80
2022/02/06 13:39:18;;;;;;;2.07;0.60;;;6.10;99.90;;;;;;4904098;29;20068;-87
2022/02/06 13:41:44;;;;;;;2.40;0.57;;;6.10;99.90;;;;;;4952632;28;20046;-80
2022/02/06 13:44:22;;;;;;;2.30;0.60;;;6.10;99.90;;;;;;4966386;28;20464;-80
2022/02/06 13:46:48;;;;;;;4.57;0.40;;;6.20;99.90;;;;;;4982517;28;20483;-80
2022/02/06 13:49:14;;;;;;;3.13;0.57;;;6.10;99.90;;;;;;4970217;28;20033;-80
2022/02/06 13:51:47;;;;;;;4.50;0.60;;;6.10;99.90;;;;;;4965949;28;20053;-80
2022/02/06 13:54:14;;;;;;;2.10;0.50;;;6.10;99.90;;;;;;4968602;28;20022;-80
2022/02/06 13:56:40;;;;;;;6.03;0.60;;;6.10;99.90;;;;;;4965827;28;20121;-79
2022/02/06 13:59:10;;;;;;;2.60;0.60;;;6.20;99.90;;;;;;4968174;28;20061;-80
2022/02/06 14:01:51;;;;;;;1.23;0.50;;;6.20;99.90;;;;;;4968207;28;20054;-81
2022/02/06 14:04:33;;;;;;;2.40;0.97;;;6.20;99.90;;;;;;4965376;28;20050;-83
2022/02/06 14:07:14;;;;;;;1.98;0.40;;;6.20;99.90;;;;;;4961505;28;20125;-81
2022/02/06 14:12:20;;;;;;;1.60;0.70;;;6.20;99.90;;;;;;4975346;28;20050;-80
2022/02/06 14:14:57;;;;;;;2.73;0.47;;;6.20;99.90;;;;;;4958353;28;20089;-80
2022/02/06 14:17:38;;;;;;;3.23;0.60;;;6.20;99.90;;;;;;4958248;28;20463;-81
2022/02/06 14:20:12;;;;;;;2.00;0.53;;;6.20;99.90;;;;;;4975468;28;20018;-83
2022/02/06 14:22:43;;;;;;;2.73;0.43;;;6.20;99.90;;;;;;4956621;28;20063;-82
2022/02/06 14:25:12;;;;;;;3.53;0.63;;;6.30;99.90;;;;;;4957727;28;20113;-81
2022/02/06 14:27:40;;;;;;;1.23;0.50;;;6.30;99.90;;;;;;4957255;28;20129;-82
2022/02/06 14:30:36;;;;;;;1.00;0.50;;;6.20;99.90;;;;;;4957622;28;20420;-82
2022/02/06 14:33:10;;;;;;;1.87;0.53;;;6.20;99.90;;;;;;4956568;28;20035;-81
2022/02/06 14:35:52;;;;;;;2.43;0.60;;;6.20;99.90;;;;;;4957851;28;20062;-81
2022/02/06 14:38:23;;;;;;;1.73;0.50;;;6.20;99.90;;;;;;4958283;28;20046;-81
2022/02/06 14:41:46;;;;;;;1.03;0.30;;;6.20;99.90;;;;;;4957836;28;20491;-81
2022/02/06 14:43:39;;;;;;;2.30;0.40;;;6.20;99.90;;;;;;4961177;28;20035;-81
2022/02/06 14:46:06;;;;;;;0.93;0.67;;;6.20;99.90;;;;;;4966087;28;20105;-81
2022/02/06 14:48:33;;;;;;;1.90;0.43;;;6.20;99.90;;;;;;4958022;28;20022;-81
2022/02/06 14:50:58;;;;;;;1.27;0.50;;;6.20;99.90;;;;;;4958053;28;20027;-82
2022/02/06 14:53:24;;;;;;;1.90;0.40;;;6.20;99.90;;;;;;4957973;28;20119;-81
2022/02/06 14:55:55;;;;;;;2.10;0.50;;;6.20;99.90;;;;;;4957800;28;20384;-82
2022/02/06 14:58:21;;;;;;;1.67;0.40;;;6.20;99.90;;;;;;4956798;28;20596;-82
2022/02/06 15:00:47;;;;;;;2.00;0.50;;;6.20;99.90;;;;;;4957753;28;20039;-83
2022/02/06 15:03:13;;;;;;;2.40;0.57;;;6.30;99.90;;;;;;4974994;28;20058;-82
2022/02/06 15:05:40;;;;;;;2.53;0.47;;;6.30;99.90;;;;;;4958445;28;20460;-81
2022/02/06 15:08:08;;;;;;;0.90;0.30;;;6.20;99.90;;;;;;4957953;28;20030;-81
2022/02/06 15:10:35;;;;;;;1.73;0.40;;;6.30;99.90;;;;;;4957915;28;20118;-81
2022/02/06 15:13:03;;;;;;;3.30;0.30;;;6.30;99.90;;;;;;4957531;28;20023;-81
2022/02/06 15:15:35;;;;;;;4.10;0.60;;;6.30;99.90;;;;;;4957848;28;20472;-82
2022/02/06 15:18:09;;;;;;;1.05;0.38;;;6.30;99.90;;;;;;4957770;28;20022;-81
2022/02/06 15:20:35;;;;;;;0.30;0.30;;;6.30;99.90;;;;;;4957170;28;20039;-82
2022/02/06 15:23:04;;;;;;;0.80;0.30;;;6.30;99.90;;;;;;4960797;28;20515;-82
2022/02/06 15:25:29;;;;;;;2.63;0.30;;;6.30;99.90;;;;;;4961654;28;20159;-82
2022/02/06 15:27:55;;;;;;;2.60;0.60;;;6.30;99.90;;;;;;4961212;28;20054;-81
2022/02/06 15:30:20;;;;;;;2.93;0.50;;;6.30;99.90;;;;;;4961497;28;20041;-80
2022/02/06 15:32:46;;;;;;;1.63;0.40;;;6.30;99.90;;;;;;4978073;28;20507;-81
2022/02/06 15:35:12;;;;;;;1.13;0.40;;;6.30;99.90;;;;;;4961503;28;20077;-81
2022/02/06 15:37:37;;;;;;;1.13;0.37;;;6.30;99.90;;;;;;4961181;28;20037;-81
2022/02/06 15:40:04;;;;;;;0.60;0.40;;;6.30;99.90;;;;;;4961422;28;20054;-80
2022/02/06 15:42:30;;;;;;;3.13;0.50;;;6.40;99.90;;;;;;4961766;28;20027;-81
2022/02/06 15:44:56;;;;;;;1.13;0.30;;;6.40;99.90;;;;;;4961091;28;20484;-81